Lake Fork, ID (83635)

6:05 PM MDT on September 28, 2016 (GMT -0600)
Spring Mountain Ranch | | Change Station

Elev 5097 ft 44.91 °N, 116.08 °W | Updated 28 seconds ago

Clear
Clear
79.3 °F
Feels Like 78 °F
N
3.0
Wind Variable Wind from SW

Today
High -- | Low -- °F
--% Chance of Precip.
Yesterday
High -- | Low -- °F
Precip. -- in
Pressure 29.97 in
Visibility 10.0 miles
Clouds Clear
Heat Index 78 °F
Dew Point 38 °F
Humidity 22%
Rainfall 0.00 in
Snow Depth Not available.
7:39 AM 7:29 PM
Waning Crescent, 4% visible
METAR KMYL 282351Z AUTO 19008KT 10SM CLR 27/01 A3008 RMK AO2 SLP149 T02670006 10278 20178 56006
Pressure 29.97 in
Visibility 10.0 miles
Clouds Clear
Heat Index 78 °F
Dew Point 38 °F
Humidity 22%
Rainfall 0.00 in
Snow Depth Not available.
7:39 AM 7:29 PM
Waning Crescent, 4% visible
METAR KMYL 282351Z AUTO 19008KT 10SM CLR 27/01 A3008 RMK AO2 SLP149 T02670006 10278 20178 56006

10-Day Weather Forecast

Almanac

Astronomy

Sep. 28, 2016 Rise Set
Actual Time
Civil Twilight
Nautical Twilight
Astronomical Twilight
Moon
Length of Visible Light
Length of Day
Tomorrow will be .
, % of the Moon is Illuminated

Today's Extremes

State Highs State Lows

Community

WunderPhotos

Upload Photos

1,942,355 photos uploaded!

WunderBlog® & News

Nearby

Air Quality

  Air Quality AQ Index Pollutant
Not available.

Snow Depth

Station Depth Elevation

Earthquake Activity

City Distance Mag. Time & Date
Minimum magnitude displayed is 2.5.

Coastal Water Temperatures

Place Temperature

Stations

Nearby Weather Stations

Station Location Temp. Windchill Dew Point Humidity Wind Precip. Elev Updated Type
                   

Watches & Warnings

There are currently no watches in effect.